createdAt,value
2022-08-22T00:02:30.567Z,100.00
2022-08-22T00:02:49.713Z,100.00
2022-08-22T00:02:53.912Z,100.00
2022-08-22T00:02:57.905Z,100.00
2022-08-22T00:03:04.028Z,100.00
2022-08-22T00:05:10.422Z,100.00
2022-08-22T00:07:49.114Z,100.00
2022-08-22T00:10:25.864Z,100.00
2022-08-22T00:13:02.297Z,100.00
2022-08-22T00:15:43.471Z,100.00
2022-08-22T00:18:18.658Z,100.00
2022-08-22T00:20:54.113Z,100.00
2022-08-22T00:23:29.036Z,100.00
2022-08-22T00:26:03.131Z,100.00
2022-08-22T00:28:36.971Z,100.00
2022-08-22T00:31:16.802Z,100.00
2022-08-22T00:33:49.716Z,100.00
2022-08-22T00:36:25.394Z,100.00
2022-08-22T00:39:04.419Z,100.00
2022-08-22T00:41:49.460Z,100.00
2022-08-22T00:44:33.627Z,100.00
2022-08-22T00:47:21.226Z,100.00
2022-08-22T00:50:27.842Z,100.00
2022-08-22T00:53:25.821Z,100.00
2022-08-22T00:56:06.866Z,100.00
2022-08-22T00:58:52.913Z,100.00
2022-08-22T01:01:29.577Z,100.00
2022-08-22T01:04:33.326Z,100.00
2022-08-22T01:07:15.129Z,100.00
2022-08-22T01:09:51.261Z,100.00
2022-08-22T01:12:34.274Z,100.00
2022-08-22T01:15:08.205Z,100.00
2022-08-22T01:18:00.467Z,100.00
2022-08-22T01:21:07.196Z,100.00
2022-08-22T01:24:07.932Z,100.00
2022-08-22T01:27:21.691Z,100.00
2022-08-22T01:30:32.322Z,100.00
2022-08-22T01:33:44.147Z,100.00
2022-08-22T01:36:30.866Z,100.00
2022-08-22T01:39:15.006Z,100.00
2022-08-22T01:42:05.013Z,100.00
2022-08-22T01:45:03.777Z,100.00
2022-08-22T01:47:38.519Z,100.00
2022-08-22T01:50:13.995Z,100.00
2022-08-22T01:52:48.426Z,100.00
2022-08-22T01:55:27.512Z,100.00
2022-08-22T01:58:00.253Z,100.00
2022-08-22T02:00:52.317Z,100.00
2022-08-22T02:03:29.291Z,100.00
2022-08-22T02:06:04.177Z,100.00
2022-08-22T02:08:41.451Z,100.00
2022-08-22T02:11:11.819Z,100.00
2022-08-22T02:13:55.364Z,100.00
2022-08-22T02:16:32.958Z,100.00
2022-08-22T02:19:12.266Z,100.00
2022-08-22T02:21:47.199Z,100.00
2022-08-22T02:24:28.705Z,100.00
2022-08-22T02:27:09.309Z,100.00
2022-08-22T02:29:45.840Z,100.00
2022-08-22T02:32:22.328Z,100.00
2022-08-22T02:34:58.765Z,100.00
2022-08-22T02:37:36.568Z,100.00
2022-08-22T02:40:14.748Z,100.00
2022-08-22T02:42:48.726Z,100.00
2022-08-22T02:45:25.752Z,100.00
2022-08-22T02:48:00.799Z,100.00
2022-08-22T02:50:39.190Z,100.00
2022-08-22T02:53:14.489Z,100.00
2022-08-22T02:56:04.212Z,100.00
2022-08-22T02:58:44.034Z,100.00
2022-08-22T03:01:40.788Z,100.00
2022-08-22T03:04:45.253Z,100.00
2022-08-22T03:07:25.540Z,100.00
2022-08-22T03:10:02.553Z,100.00
2022-08-22T03:12:39.953Z,100.00
2022-08-22T03:15:14.379Z,100.00
2022-08-22T03:17:51.663Z,100.00
2022-08-22T03:20:37.238Z,100.00
2022-08-22T03:23:14.593Z,100.00
2022-08-22T03:25:48.218Z,100.00
2022-08-22T03:28:23.314Z,100.00
2022-08-22T03:31:01.093Z,100.00
2022-08-22T03:33:31.259Z,100.00
2022-08-22T03:36:06.499Z,100.00
2022-08-22T03:39:08.323Z,100.00
2022-08-22T03:42:18.761Z,100.00
2022-08-22T03:45:10.642Z,100.00
2022-08-22T03:48:11.358Z,100.00
2022-08-22T03:51:04.927Z,100.00
2022-08-22T03:53:52.823Z,100.00
2022-08-22T03:56:41.792Z,100.00
2022-08-22T03:59:32.145Z,100.00
2022-08-22T04:02:42.507Z,100.00
2022-08-22T04:05:49.175Z,100.00
2022-08-22T04:09:01.216Z,100.00
2022-08-22T04:12:02.710Z,100.00
2022-08-22T04:14:49.839Z,100.00
2022-08-22T04:17:43.648Z,100.00
2022-08-22T04:20:53.896Z,100.00
2022-08-22T04:24:00.945Z,100.00
2022-08-22T04:26:36.478Z,100.00
2022-08-22T04:29:09.757Z,100.00
2022-08-22T04:31:49.822Z,100.00
2022-08-22T04:34:25.571Z,100.00
2022-08-22T04:37:03.768Z,100.00
2022-08-22T04:39:39.733Z,100.00
2022-08-22T04:42:31.613Z,100.00
2022-08-22T04:45:06.786Z,100.00
2022-08-22T04:47:38.597Z,100.00
2022-08-22T04:50:15.062Z,100.00
2022-08-22T04:52:57.566Z,100.00
2022-08-22T04:55:34.511Z,100.00
2022-08-22T04:58:13.002Z,100.00
2022-08-22T05:00:45.822Z,100.00
2022-08-22T05:03:20.661Z,100.00
2022-08-22T05:05:53.012Z,100.00
2022-08-22T05:08:26.882Z,100.00
2022-08-22T05:10:55.806Z,100.00
2022-08-22T05:13:28.156Z,100.00
2022-08-22T05:16:03.075Z,100.00
2022-08-22T05:18:37.360Z,100.00
2022-08-22T05:21:11.244Z,100.00
2022-08-22T05:23:45.166Z,100.00
2022-08-22T05:26:15.973Z,100.00
2022-08-22T05:28:52.539Z,100.00
2022-08-22T05:31:26.324Z,100.00
2022-08-22T05:33:59.375Z,100.00
2022-08-22T05:36:33.459Z,100.00
2022-08-22T05:39:05.885Z,100.00
2022-08-22T05:41:37.813Z,100.00
2022-08-22T05:44:14.161Z,100.00
2022-08-22T05:46:44.460Z,100.00
2022-08-22T05:49:19.966Z,100.00
2022-08-22T05:51:59.232Z,100.00
2022-08-22T05:54:34.417Z,100.00
2022-08-22T05:57:10.975Z,100.00
2022-08-22T05:59:43.156Z,100.00
2022-08-22T06:02:19.036Z,100.00
2022-08-22T06:04:51.877Z,100.00
2022-08-22T06:07:25.972Z,100.00
2022-08-22T06:10:20.667Z,100.00
2022-08-22T06:12:57.472Z,100.00
2022-08-22T06:15:34.151Z,100.00
2022-08-22T06:18:06.326Z,100.00
2022-08-22T06:20:39.241Z,100.00
2022-08-22T06:23:13.452Z,100.00
2022-08-22T06:25:46.877Z,100.00
2022-08-22T06:28:20.310Z,100.00
2022-08-22T06:30:51.384Z,100.00
2022-08-22T06:33:25.474Z,100.00
2022-08-22T06:36:16.366Z,100.00
2022-08-22T06:39:01.758Z,100.00
2022-08-22T06:41:34.114Z,100.00
2022-08-22T06:44:06.360Z,100.00
2022-08-22T06:46:38.162Z,100.00
2022-08-22T06:49:09.210Z,100.00
2022-08-22T06:51:39.800Z,100.00
2022-08-22T06:54:16.583Z,100.00
2022-08-22T06:56:47.800Z,100.00
2022-08-22T06:59:18.840Z,100.00
2022-08-22T07:01:57.967Z,100.00
2022-08-22T07:04:27.677Z,100.00
2022-08-22T07:06:58.351Z,100.00
2022-08-22T07:09:32.100Z,100.00
2022-08-22T07:12:03.981Z,100.00
2022-08-22T07:14:39.506Z,100.00
2022-08-22T07:17:09.763Z,100.00
2022-08-22T07:19:41.475Z,100.00
2022-08-22T07:22:15.600Z,100.00
2022-08-22T07:24:48.712Z,100.00
2022-08-22T07:27:32.237Z,100.00
2022-08-22T07:30:09.908Z,100.00
2022-08-22T07:32:46.842Z,100.00
2022-08-22T07:35:19.038Z,99.49
2022-08-22T07:37:55.504Z,100.00
2022-08-22T07:40:31.958Z,99.99
2022-08-22T07:43:09.374Z,100.00
2022-08-22T07:45:44.409Z,99.48
2022-08-22T07:48:25.893Z,99.91
2022-08-22T07:51:02.118Z,100.00
2022-08-22T07:53:37.376Z,99.56
2022-08-22T07:56:10.717Z,97.53
2022-08-22T07:58:41.983Z,96.31
2022-08-22T08:01:16.027Z,96.42
2022-08-22T08:03:50.578Z,94.71
2022-08-22T08:06:18.881Z,91.41
2022-08-22T08:08:47.324Z,89.54
2022-08-22T08:11:19.305Z,90.01
2022-08-22T08:13:52.159Z,90.42
2022-08-22T08:16:24.623Z,90.23
2022-08-22T08:18:56.695Z,87.06
2022-08-22T08:21:30.728Z,87.05
2022-08-22T08:24:01.919Z,85.99
2022-08-22T08:26:35.372Z,85.88
2022-08-22T08:29:04.185Z,81.52
2022-08-22T08:31:38.009Z,81.14
2022-08-22T08:34:16.024Z,80.62
2022-08-22T08:36:51.716Z,79.80
2022-08-22T08:39:26.240Z,79.40
2022-08-22T08:42:54.698Z,77.41
2022-08-22T08:45:38.323Z,79.23
2022-08-22T08:48:24.234Z,77.57
2022-08-22T08:51:06.777Z,75.63
2022-08-22T08:53:57.320Z,75.42
2022-08-22T08:56:35.888Z,75.14
2022-08-22T09:01:59.541Z,75.07
2022-08-22T09:04:57.005Z,73.73
2022-08-22T09:07:43.453Z,74.94
2022-08-22T09:10:45.142Z,75.00
2022-08-22T09:13:40.746Z,74.98
2022-08-22T09:16:24.927Z,73.40
2022-08-22T09:19:19.981Z,74.47
2022-08-22T09:22:14.609Z,74.12
2022-08-22T09:25:24.142Z,72.20
2022-08-22T09:27:59.618Z,72.62
2022-08-22T09:30:45.949Z,72.49
2022-08-22T09:33:31.874Z,72.47
2022-08-22T09:36:05.201Z,72.63
2022-08-22T09:38:47.687Z,71.22
2022-08-22T09:41:27.915Z,71.27
2022-08-22T09:44:12.191Z,71.54
2022-08-22T09:46:54.858Z,70.06
2022-08-22T09:49:36.866Z,70.85
2022-08-22T09:52:15.121Z,71.13
2022-08-22T09:54:48.516Z,71.06
2022-08-22T09:57:26.758Z,70.75
2022-08-22T10:00:15.690Z,70.49
2022-08-22T10:02:56.808Z,68.75
2022-08-22T10:05:41.230Z,69.98
2022-08-22T10:08:20.293Z,69.40
2022-08-22T10:11:06.564Z,70.09
2022-08-22T10:13:46.340Z,69.43
2022-08-22T10:16:53.776Z,68.05
2022-08-22T10:19:29.581Z,65.46
2022-08-22T10:22:32.001Z,65.86
2022-08-22T10:25:14.559Z,66.12
2022-08-22T10:27:54.038Z,67.24
2022-08-22T10:30:27.654Z,66.93
2022-08-22T10:33:03.392Z,67.17
2022-08-22T10:35:38.959Z,65.68
2022-08-22T10:38:14.926Z,66.66
2022-08-22T10:40:52.037Z,66.30
2022-08-22T10:43:28.639Z,65.81
2022-08-22T10:46:04.010Z,66.94
2022-08-22T10:48:49.176Z,67.32
2022-08-22T10:51:25.425Z,65.38
2022-08-22T10:54:10.355Z,64.48
2022-08-22T10:56:43.815Z,65.82
2022-08-22T10:59:27.464Z,65.95
2022-08-22T11:02:09.763Z,65.04
2022-08-22T11:04:59.106Z,67.00
2022-08-22T11:07:48.536Z,67.52
2022-08-22T11:10:28.746Z,68.05
2022-08-22T11:13:11.837Z,67.87
2022-08-22T11:15:55.929Z,67.46
2022-08-22T11:18:36.253Z,66.83
2022-08-22T11:21:10.917Z,65.90
2022-08-22T11:23:46.134Z,65.63
2022-08-22T11:26:33.444Z,65.85
2022-08-22T11:29:24.866Z,66.48
2022-08-22T11:32:05.927Z,68.22
2022-08-22T11:34:47.601Z,66.13
2022-08-22T11:37:42.566Z,66.97
2022-08-22T11:40:31.654Z,68.33
2022-08-22T11:43:18.447Z,67.40
2022-08-22T11:45:49.650Z,68.40
2022-08-22T11:48:24.730Z,66.62
2022-08-22T11:50:59.803Z,67.63
2022-08-22T11:53:35.802Z,65.94
2022-08-22T11:56:20.590Z,65.17
2022-08-22T11:58:59.559Z,65.01
2022-08-22T12:01:39.598Z,65.27
2022-08-22T12:04:15.774Z,63.32
2022-08-22T12:07:03.111Z,63.20
2022-08-22T12:09:42.076Z,63.85
2022-08-22T12:12:20.966Z,62.00
2022-08-22T12:15:00.062Z,64.77
2022-08-22T12:18:21.207Z,66.99
2022-08-22T12:21:13.355Z,67.27
2022-08-22T12:24:05.930Z,65.69
2022-08-22T12:26:47.256Z,63.59
2022-08-22T12:29:33.921Z,64.52
2022-08-22T12:32:58.634Z,65.38
2022-08-22T12:35:41.952Z,66.10
2022-08-22T12:38:28.887Z,63.44
2022-08-22T12:41:13.628Z,65.85
2022-08-22T12:44:04.501Z,65.84
2022-08-22T12:46:48.349Z,64.90
2022-08-22T12:49:38.580Z,64.63
2022-08-22T12:52:25.031Z,64.68
2022-08-22T12:55:14.922Z,66.27
2022-08-22T12:57:54.072Z,65.86
2022-08-22T13:00:34.624Z,67.78
2022-08-22T13:03:08.323Z,66.86
2022-08-22T13:05:41.720Z,66.52
2022-08-22T13:08:17.601Z,66.67
2022-08-22T13:10:48.769Z,66.38
2022-08-22T13:13:31.634Z,68.58
2022-08-22T13:16:08.667Z,67.14
2022-08-22T13:18:53.527Z,66.95
2022-08-22T13:21:32.103Z,66.08
2022-08-22T13:24:10.561Z,66.69
2022-08-22T13:26:49.154Z,66.36
2022-08-22T13:29:26.150Z,65.04
2022-08-22T13:32:00.279Z,65.44
2022-08-22T13:34:39.901Z,66.38
2022-08-22T13:37:16.682Z,66.90
2022-08-22T13:39:49.198Z,66.08
2022-08-22T13:42:30.181Z,67.32
2022-08-22T13:45:04.882Z,65.81
2022-08-22T13:47:47.108Z,63.72
2022-08-22T13:50:20.955Z,66.38
2022-08-22T13:52:56.183Z,67.82
2022-08-22T13:55:32.744Z,67.18
2022-08-22T13:58:06.938Z,69.00
2022-08-22T14:01:10.401Z,64.80
2022-08-22T14:03:48.804Z,64.99
2022-08-22T14:06:41.473Z,68.03
2022-08-22T14:09:31.951Z,65.27
2022-08-22T14:12:12.271Z,66.32
2022-08-22T14:14:46.012Z,66.24
2022-08-22T14:17:21.127Z,65.64
2022-08-22T14:19:59.749Z,65.71
2022-08-22T14:22:35.093Z,64.28
2022-08-22T14:25:10.126Z,64.66
2022-08-22T14:27:45.757Z,62.32
2022-08-22T14:30:18.907Z,64.52
2022-08-22T14:32:52.136Z,63.04
2022-08-22T14:35:34.699Z,63.70
2022-08-22T14:38:17.856Z,63.14
2022-08-22T14:40:53.737Z,63.35
2022-08-22T14:43:40.675Z,63.86
2022-08-22T14:46:14.280Z,62.41
2022-08-22T14:48:50.442Z,63.21
2022-08-22T14:51:22.390Z,64.80
2022-08-22T14:53:51.634Z,66.70
2022-08-22T14:56:24.758Z,68.24
2022-08-22T14:58:56.873Z,68.45
2022-08-22T15:01:29.795Z,67.70
2022-08-22T15:04:03.782Z,69.07
2022-08-22T15:06:37.255Z,67.90
2022-08-22T15:09:08.331Z,67.42
2022-08-22T15:11:42.174Z,67.39
2022-08-22T15:14:21.867Z,68.82
2022-08-22T15:16:54.546Z,69.22
2022-08-22T15:19:27.550Z,69.51
2022-08-22T15:22:13.618Z,71.05
2022-08-22T15:24:45.959Z,71.72
2022-08-22T15:27:18.611Z,71.83
2022-08-22T15:29:51.398Z,72.37
2022-08-22T15:32:22.866Z,72.50
2022-08-22T15:35:03.329Z,72.73
2022-08-22T15:37:34.951Z,72.98
2022-08-22T15:40:12.728Z,73.08
2022-08-22T15:42:46.246Z,72.97
2022-08-22T15:45:33.721Z,73.53
2022-08-22T15:48:05.917Z,73.79
2022-08-22T15:50:39.701Z,73.14
2022-08-22T15:53:18.674Z,73.45
2022-08-22T15:56:20.542Z,73.11
2022-08-22T15:58:55.610Z,73.16
2022-08-22T16:01:26.338Z,73.00
2022-08-22T16:03:59.542Z,73.33
2022-08-22T16:06:42.783Z,74.15
2022-08-22T16:09:33.590Z,75.24
2022-08-22T16:12:05.150Z,76.49
2022-08-22T16:14:52.446Z,76.32
2022-08-22T16:17:45.919Z,77.93
2022-08-22T16:20:50.774Z,78.48
2022-08-22T16:23:18.968Z,78.88
2022-08-22T16:26:12.125Z,79.78
2022-08-22T16:29:04.725Z,80.01
2022-08-22T16:31:38.746Z,79.66
2022-08-22T16:34:26.410Z,80.50
2022-08-22T16:37:32.076Z,81.36
2022-08-22T16:40:14.682Z,82.83
2022-08-22T16:42:46.390Z,83.03
2022-08-22T16:45:21.965Z,84.68
2022-08-22T16:47:58.010Z,85.08
2022-08-22T16:50:38.220Z,86.12
2022-08-22T16:53:10.500Z,87.42
2022-08-22T16:55:49.206Z,86.68
2022-08-22T16:58:40.261Z,88.39
2022-08-22T17:01:22.048Z,88.58
2022-08-22T17:04:02.426Z,88.21
2022-08-22T17:06:48.471Z,89.16
2022-08-22T17:09:42.741Z,90.54
2022-08-22T17:12:25.236Z,90.63
2022-08-22T17:15:04.527Z,89.35
2022-08-22T17:17:41.451Z,89.82
2022-08-22T17:20:26.538Z,91.17
2022-08-22T17:23:01.637Z,92.17
2022-08-22T17:25:35.310Z,92.77
2022-08-22T17:28:18.169Z,94.11
2022-08-22T17:30:58.628Z,94.90
2022-08-22T17:34:00.134Z,95.51
2022-08-22T17:36:42.621Z,95.74
2022-08-22T17:39:25.533Z,95.36
2022-08-22T17:42:03.850Z,96.57
2022-08-22T17:44:40.414Z,95.19
2022-08-22T17:47:16.089Z,95.40
2022-08-22T17:49:55.804Z,96.98
2022-08-22T17:52:35.863Z,97.77
2022-08-22T17:55:14.918Z,97.37
2022-08-22T17:57:50.093Z,96.41
2022-08-22T18:00:24.121Z,97.09
2022-08-22T18:02:57.563Z,95.31
2022-08-22T18:05:31.001Z,95.49
2022-08-22T18:08:08.758Z,95.56
2022-08-22T18:10:46.482Z,94.99
2022-08-22T18:13:21.991Z,95.48
2022-08-22T18:16:00.779Z,96.03
2022-08-22T18:18:35.157Z,96.18
2022-08-22T18:21:10.933Z,95.76
2022-08-22T18:23:45.251Z,96.48
2022-08-22T18:26:24.365Z,97.43
2022-08-22T18:29:00.738Z,97.30
2022-08-22T18:31:47.520Z,99.47
2022-08-22T18:34:27.949Z,99.72
2022-08-22T18:37:01.957Z,100.00
2022-08-22T18:39:42.078Z,100.00
2022-08-22T18:42:22.109Z,100.00
2022-08-22T18:44:50.585Z,100.00
2022-08-22T18:47:24.848Z,100.00
2022-08-22T18:49:55.007Z,100.00
2022-08-22T18:52:36.150Z,100.00
2022-08-22T18:55:32.357Z,100.00
2022-08-22T18:58:26.839Z,100.00
2022-08-22T19:01:19.395Z,100.00
2022-08-22T19:04:13.184Z,100.00
2022-08-22T19:06:58.450Z,100.00
2022-08-22T19:09:50.033Z,100.00
2022-08-22T19:12:42.981Z,99.88
2022-08-22T19:15:25.057Z,100.00
2022-08-22T19:18:34.440Z,100.00
2022-08-22T19:21:35.839Z,100.00
2022-08-22T19:24:09.306Z,100.00
2022-08-22T19:26:40.984Z,100.00
2022-08-22T19:29:42.419Z,100.00
2022-08-22T19:32:33.629Z,100.00
2022-08-22T19:35:19.537Z,100.00
2022-08-22T19:37:55.813Z,100.00
2022-08-22T19:40:54.195Z,100.00
2022-08-22T19:43:32.568Z,100.00
2022-08-22T19:46:04.746Z,100.00
2022-08-22T19:48:44.515Z,100.00
2022-08-22T19:51:25.379Z,100.00
2022-08-22T19:54:15.794Z,100.00
2022-08-22T19:57:02.679Z,100.00
2022-08-22T19:59:50.991Z,100.00
2022-08-22T20:02:31.939Z,100.00
2022-08-22T20:05:18.600Z,100.00
2022-08-22T20:08:00.567Z,100.00
2022-08-22T20:10:39.061Z,100.00
2022-08-22T20:13:11.799Z,100.00
2022-08-22T20:16:02.473Z,100.00
2022-08-22T20:19:00.203Z,100.00
2022-08-22T20:21:58.013Z,100.00
2022-08-22T20:24:36.502Z,100.00
2022-08-22T20:27:15.141Z,100.00
2022-08-22T20:29:49.750Z,100.00
2022-08-22T20:32:21.414Z,100.00
2022-08-22T20:34:54.554Z,100.00
2022-08-22T20:37:45.335Z,100.00
2022-08-22T20:40:55.095Z,100.00
2022-08-22T20:43:18.535Z,100.00
2022-08-22T20:45:59.475Z,100.00
2022-08-22T20:48:36.809Z,100.00
2022-08-22T20:51:06.855Z,100.00
2022-08-22T20:53:37.248Z,100.00
2022-08-22T20:56:08.077Z,100.00
2022-08-22T20:58:40.401Z,100.00
2022-08-22T21:01:12.079Z,100.00
2022-08-22T21:03:43.601Z,100.00
2022-08-22T21:06:14.723Z,100.00
2022-08-22T21:08:46.534Z,100.00
2022-08-22T21:11:42.207Z,100.00
2022-08-22T21:14:21.538Z,100.00
2022-08-22T21:16:50.087Z,100.00
2022-08-22T21:19:20.763Z,100.00
2022-08-22T21:21:48.956Z,100.00
2022-08-22T21:24:18.591Z,100.00
2022-08-22T21:26:50.802Z,100.00
2022-08-22T21:29:27.026Z,100.00
2022-08-22T21:32:11.929Z,100.00
2022-08-22T21:34:45.239Z,100.00
2022-08-22T21:37:16.507Z,100.00
2022-08-22T21:39:49.082Z,100.00
2022-08-22T21:42:25.080Z,100.00
2022-08-22T21:44:58.359Z,100.00
2022-08-22T21:47:31.688Z,100.00
2022-08-22T21:50:28.255Z,100.00
2022-08-22T21:53:11.831Z,100.00
2022-08-22T21:55:46.660Z,100.00
2022-08-22T21:58:35.806Z,100.00
2022-08-22T22:01:28.299Z,100.00
2022-08-22T22:03:57.524Z,100.00
2022-08-22T22:06:26.184Z,100.00
2022-08-22T22:08:54.490Z,100.00
2022-08-22T22:11:24.007Z,100.00
2022-08-22T22:13:52.404Z,100.00
2022-08-22T22:16:25.834Z,100.00
2022-08-22T22:18:54.598Z,100.00
2022-08-22T22:21:22.971Z,100.00
2022-08-22T22:23:51.501Z,100.00
2022-08-22T22:26:20.955Z,100.00
2022-08-22T22:28:51.183Z,100.00
2022-08-22T22:31:19.562Z,100.00
2022-08-22T22:33:47.761Z,100.00
2022-08-22T22:36:19.768Z,100.00
2022-08-22T22:38:48.730Z,100.00
2022-08-22T22:41:21.212Z,100.00
2022-08-22T22:43:50.712Z,100.00
2022-08-22T22:46:18.930Z,100.00
2022-08-22T22:48:47.089Z,100.00
2022-08-22T22:51:16.035Z,100.00
2022-08-22T22:53:44.851Z,100.00
2022-08-22T22:56:15.915Z,100.00
2022-08-22T22:58:44.530Z,100.00
2022-08-22T23:01:17.299Z,100.00
2022-08-22T23:03:46.674Z,100.00
2022-08-22T23:06:18.455Z,100.00
2022-08-22T23:08:47.233Z,100.00
2022-08-22T23:11:18.446Z,100.00
2022-08-22T23:13:48.169Z,100.00
2022-08-22T23:16:21.883Z,100.00
2022-08-22T23:18:50.339Z,100.00
2022-08-22T23:21:20.613Z,100.00
2022-08-22T23:23:49.707Z,100.00
2022-08-22T23:26:18.597Z,100.00
2022-08-22T23:28:47.194Z,100.00
2022-08-22T23:31:18.560Z,100.00
2022-08-22T23:33:47.446Z,100.00
2022-08-22T23:36:18.711Z,100.00
2022-08-22T23:38:47.356Z,100.00
2022-08-22T23:41:17.842Z,100.00
2022-08-22T23:43:49.639Z,100.00
2022-08-22T23:46:22.282Z,100.00
2022-08-22T23:48:50.682Z,100.00
2022-08-22T23:51:23.212Z,100.00
2022-08-22T23:53:52.012Z,100.00
2022-08-22T23:56:22.903Z,100.00
2022-08-22T23:58:53.344Z,100.00
